Time;durP1;ratioP1;P1;durP2;ratioP2;P2;SDS_P1;SDS_P2;PMS_P1;PMS_P2;Temp;Humidity;BMP_temperature;BMP_pressure;BME280_temperature;BME280_humidity;BME280_pressure;Samples;Min_cycle;Max_cycle;Signal;HPM_P1;HPM_P2
2023/10/21 06:49:06;;;;;;;;;3.33;0.67;;;;;;;;6227949;22;46369;-70
2023/10/21 06:51:32;;;;;;;;;3.67;1.67;;;;;;;;6305549;22;45409;-71
2023/10/21 06:53:57;;;;;;;;;3.33;1.00;;;;;;;;6280277;22;45413;-71
2023/10/21 06:56:22;;;;;;;;;2.00;2.00;;;;;;;;6309597;22;45200;-71
2023/10/21 06:58:48;;;;;;;;;1.67;1.33;;;;;;;;6280553;22;47141;-71
2023/10/21 07:01:14;;;;;;;;;3.00;3.00;;;;;;;;6307940;22;45254;-73
2023/10/21 07:03:39;;;;;;;;;1.00;1.00;;;;;;;;6308413;22;45407;-71
2023/10/21 07:06:05;;;;;;;;;6.00;4.33;;;;;;;;6308600;22;45343;-70
2023/10/21 07:08:30;;;;;;;;;4.00;3.00;;;;;;;;6280655;22;47039;-70
2023/10/21 07:10:56;;;;;;;;;4.33;1.33;;;;;;;;6308391;22;45357;-70
2023/10/21 07:13:22;;;;;;;;;3.00;1.00;;;;;;;;6308728;22;45179;-69
2023/10/21 07:15:47;;;;;;;;;2.33;1.00;;;;;;;;6308717;22;45260;-70
2023/10/21 07:18:12;;;;;;;;;5.00;3.33;;;;;;;;6309066;22;45084;-68
2023/10/21 07:20:38;;;;;;;;;3.33;2.00;;;;;;;;6308386;22;45068;-69
2023/10/21 07:23:04;;;;;;;;;1.00;1.00;;;;;;;;6308827;22;45874;-70
2023/10/21 07:25:29;;;;;;;;;0.67;0.67;;;;;;;;6308833;22;45144;-70
2023/10/21 07:27:54;;;;;;;;;8.00;7.00;;;;;;;;6309159;22;45179;-70
2023/10/21 07:30:23;;;;;;;;;6.33;2.00;;;;;;;;6308395;22;45467;-70
2023/10/21 07:32:48;;;;;;;;;4.67;4.67;;;;;;;;6305669;22;45583;-71
2023/10/21 07:35:14;;;;;;;;;2.67;1.00;;;;;;;;6304884;22;45529;-70
2023/10/21 07:37:39;;;;;;;;;2.00;2.00;;;;;;;;6306287;22;45369;-70
2023/10/21 07:40:06;;;;;;;;;4.00;1.67;;;;;;;;6277792;22;45322;-70
2023/10/21 07:42:31;;;;;;;;;1.00;1.00;;;;;;;;6306799;22;45287;-70
2023/10/21 07:44:56;;;;;;;;;3.00;0.00;;;;;;;;6306658;22;45246;-69
2023/10/21 07:47:22;;;;;;;;;5.33;3.00;;;;;;;;6308488;22;46569;-70
2023/10/21 07:49:47;;;;;;;;;2.00;0.33;;;;;;;;6313716;22;45467;-69
2023/10/21 07:52:13;;;;;;;;;2.00;1.00;;;;;;;;6340435;22;45181;-69
2023/10/21 07:54:38;;;;;;;;;1.00;0.00;;;;;;;;6339454;22;45230;-69
2023/10/21 07:57:04;;;;;;;;;3.67;1.33;;;;;;;;6340382;22;45132;-69
2023/10/21 07:59:29;;;;;;;;;1.67;1.00;;;;;;;;6310618;22;45274;-69
2023/10/21 08:01:54;;;;;;;;;2.00;0.67;;;;;;;;6339919;22;45249;-69
2023/10/21 08:04:19;;;;;;;;;3.33;1.00;;;;;;;;6339576;22;45440;-69
2023/10/21 08:06:46;;;;;;;;;2.67;2.00;;;;;;;;6340322;22;46495;-69
2023/10/21 08:09:14;;;;;;;;;1.00;1.00;;;;;;;;6340276;22;45299;-69
2023/10/21 08:11:39;;;;;;;;;1.33;1.00;;;;;;;;6340267;22;45203;-69
2023/10/21 08:14:04;;;;;;;;;3.33;1.00;;;;;;;;6339892;22;45478;-69
2023/10/21 08:16:30;;;;;;;;;4.00;2.00;;;;;;;;6340128;22;46030;-70
2023/10/21 08:18:55;;;;;;;;;3.33;1.67;;;;;;;;6339510;22;45386;-68
2023/10/21 08:21:20;;;;;;;;;3.00;2.00;;;;;;;;6340158;22;45235;-69
2023/10/21 08:23:46;;;;;;;;;4.33;2.00;;;;;;;;6339585;22;45226;-69
2023/10/21 08:26:11;;;;;;;;;2.33;1.00;;;;;;;;6340096;22;45258;-69
2023/10/21 08:28:36;;;;;;;;;3.00;1.00;;;;;;;;6339884;22;45344;-69
2023/10/21 08:31:01;;;;;;;;;3.00;2.00;;;;;;;;6339977;22;45207;-69
2023/10/21 08:33:26;;;;;;;;;1.00;0.00;;;;;;;;6310945;22;45314;-69
2023/10/21 08:35:52;;;;;;;;;2.00;2.00;;;;;;;;6339679;22;45200;-69
2023/10/21 08:38:17;;;;;;;;;2.00;2.00;;;;;;;;6339870;22;45352;-70
2023/10/21 08:40:46;;;;;;;;;3.33;0.33;;;;;;;;6340146;22;45535;-70
2023/10/21 08:43:13;;;;;;;;;1.00;1.00;;;;;;;;6310917;22;47042;-70
2023/10/21 08:45:39;;;;;;;;;0.67;0.67;;;;;;;;6339118;22;46080;-70
2023/10/21 08:48:05;;;;;;;;;8.00;2.00;;;;;;;;6340160;22;45244;-69
2023/10/21 08:50:35;;;;;;;;;5.33;1.33;;;;;;;;6336655;22;45181;-70
2023/10/21 08:53:04;;;;;;;;;3.33;3.00;;;;;;;;6311380;22;46054;-70
2023/10/21 08:55:29;;;;;;;;;1.67;0.33;;;;;;;;6339216;22;46217;-70
2023/10/21 08:57:55;;;;;;;;;8.67;3.67;;;;;;;;6339501;22;45223;-70
2023/10/21 09:00:20;;;;;;;;;3.00;1.67;;;;;;;;6339568;22;45219;-69
2023/10/21 09:02:45;;;;;;;;;1.67;0.00;;;;;;;;6340541;22;45701;-70
2023/10/21 09:05:13;;;;;;;;;2.00;2.00;;;;;;;;6338994;22;46132;-71
2023/10/21 09:07:49;;;;;;;;;3.33;1.00;;;;;;;;6341507;22;45199;-70
2023/10/21 09:10:14;;;;;;;;;1.00;1.00;;;;;;;;6340999;22;45184;-70
2023/10/21 09:12:40;;;;;;;;;4.67;1.00;;;;;;;;6341515;22;45257;-70
2023/10/21 09:15:05;;;;;;;;;1.00;1.00;;;;;;;;6340930;22;45922;-71
2023/10/21 09:17:38;;;;;;;;;1.67;0.00;;;;;;;;6341453;22;44593;-71
2023/10/21 09:20:11;;;;;;;;;2.33;1.00;;;;;;;;6312259;22;45389;-70
2023/10/21 09:22:37;;;;;;;;;0.00;0.00;;;;;;;;6341074;22;45220;-71
2023/10/21 09:25:19;;;;;;;;;6.00;1.33;;;;;;;;6312039;22;46739;-70
2023/10/21 09:27:45;;;;;;;;;1.67;1.00;;;;;;;;6341675;22;45188;-71
2023/10/21 09:30:14;;;;;;;;;4.00;2.00;;;;;;;;6341320;22;45210;-71
2023/10/21 09:32:41;;;;;;;;;6.00;1.67;;;;;;;;6313072;22;45335;-71
2023/10/21 09:35:18;;;;;;;;;3.00;1.00;;;;;;;;6337872;22;45346;-71
2023/10/21 09:37:43;;;;;;;;;4.00;1.00;;;;;;;;6339471;22;45253;-72
2023/10/21 09:40:09;;;;;;;;;3.00;1.00;;;;;;;;6341083;22;45247;-70
2023/10/21 09:42:41;;;;;;;;;1.00;0.00;;;;;;;;6341381;22;45276;-72
2023/10/21 09:45:07;;;;;;;;;2.00;2.00;;;;;;;;6339072;22;45366;-71
2023/10/21 09:47:36;;;;;;;;;4.33;1.00;;;;;;;;6341017;22;45208;-70
2023/10/21 09:50:05;;;;;;;;;4.00;1.00;;;;;;;;6340180;22;45267;-71
2023/10/21 09:52:35;;;;;;;;;0.33;0.33;;;;;;;;6340560;22;45298;-70
2023/10/21 09:55:05;;;;;;;;;1.67;0.67;;;;;;;;6340849;22;46262;-70
2023/10/21 09:57:30;;;;;;;;;5.00;1.00;;;;;;;;6340782;22;45278;-70
2023/10/21 09:59:56;;;;;;;;;2.33;0.33;;;;;;;;6341244;22;45275;-70
2023/10/21 10:02:22;;;;;;;;;1.00;1.00;;;;;;;;6341358;22;45203;-70
2023/10/21 10:04:49;;;;;;;;;1.33;1.33;;;;;;;;6311195;22;46619;-70
2023/10/21 10:07:15;;;;;;;;;2.33;1.00;;;;;;;;6341116;22;45207;-70
2023/10/21 10:09:42;;;;;;;;;2.00;2.00;;;;;;;;6341023;22;45298;-69
2023/10/21 10:12:12;;;;;;;;;1.00;1.00;;;;;;;;6339339;22;45224;-70
2023/10/21 10:14:37;;;;;;;;;4.67;1.00;;;;;;;;6339446;22;45057;-70
2023/10/21 10:17:05;;;;;;;;;1.00;1.00;;;;;;;;6340759;22;45145;-70
2023/10/21 10:19:37;;;;;;;;;3.00;1.00;;;;;;;;6338276;22;45239;-70
2023/10/21 10:22:28;;;;;;;;;1.67;1.00;;;;;;;;6340329;22;46137;-69
2023/10/21 10:24:54;;;;;;;;;0.00;0.00;;;;;;;;6339640;22;47821;-68
2023/10/21 10:27:23;;;;;;;;;0.00;0.00;;;;;;;;6340510;22;45334;-70
2023/10/21 10:29:50;;;;;;;;;2.00;2.00;;;;;;;;6340241;22;45221;-70
2023/10/21 10:32:15;;;;;;;;;2.00;1.00;;;;;;;;6340832;22;44638;-69
2023/10/21 10:34:52;;;;;;;;;5.00;0.33;;;;;;;;6340209;22;45208;-68
2023/10/21 10:37:30;;;;;;;;;1.00;1.00;;;;;;;;6340643;22;44773;-70
2023/10/21 10:39:55;;;;;;;;;1.33;1.00;;;;;;;;6340250;22;45258;-70
2023/10/21 10:42:25;;;;;;;;;6.67;2.00;;;;;;;;6340624;22;45154;-70
2023/10/21 10:44:51;;;;;;;;;0.00;0.00;;;;;;;;6340587;22;45394;-70
2023/10/21 10:47:17;;;;;;;;;2.00;0.00;;;;;;;;6340758;22;45437;-69
2023/10/21 10:50:00;;;;;;;;;1.00;1.00;;;;;;;;6311930;22;45274;-70
2023/10/21 10:52:26;;;;;;;;;2.33;1.00;;;;;;;;6339163;22;45277;-70
2023/10/21 10:54:51;;;;;;;;;2.00;1.00;;;;;;;;6339813;22;45302;-71
2023/10/21 10:57:17;;;;;;;;;2.67;1.00;;;;;;;;6340753;22;45219;-70
2023/10/21 10:59:42;;;;;;;;;0.00;0.00;;;;;;;;6339452;22;45234;-72
2023/10/21 11:02:08;;;;;;;;;0.00;0.00;;;;;;;;6341201;22;45177;-71
2023/10/21 11:04:33;;;;;;;;;4.33;1.00;;;;;;;;6311784;22;46478;-69
2023/10/21 11:06:59;;;;;;;;;3.33;2.00;;;;;;;;6311444;22;45227;-71
2023/10/21 11:09:30;;;;;;;;;2.00;0.00;;;;;;;;6312318;22;45354;-72
2023/10/21 11:11:57;;;;;;;;;0.00;0.00;;;;;;;;6339599;22;45247;-71
2023/10/21 11:14:24;;;;;;;;;2.33;1.00;;;;;;;;6340449;22;45286;-72
2023/10/21 11:16:50;;;;;;;;;3.00;0.00;;;;;;;;6310931;22;45255;-71
2023/10/21 11:19:15;;;;;;;;;9.00;8.67;;;;;;;;6340184;22;45145;-69
2023/10/21 11:21:42;;;;;;;;;3.00;1.00;;;;;;;;6340814;22;45175;-69
2023/10/21 11:24:08;;;;;;;;;6.33;2.00;;;;;;;;6340173;22;46043;-69
2023/10/21 11:26:33;;;;;;;;;2.00;2.00;;;;;;;;6340120;22;45365;-70
2023/10/21 11:29:00;;;;;;;;;1.00;1.00;;;;;;;;6312477;22;45184;-68
2023/10/21 11:31:26;;;;;;;;;3.00;1.67;;;;;;;;6340004;22;45227;-71
2023/10/21 11:33:52;;;;;;;;;1.00;1.00;;;;;;;;6338930;22;45425;-69
2023/10/21 11:36:17;;;;;;;;;4.00;1.00;;;;;;;;6340184;22;45414;-68
2023/10/21 11:38:42;;;;;;;;;4.00;1.00;;;;;;;;6340701;22;45223;-70
2023/10/21 11:41:11;;;;;;;;;1.33;1.00;;;;;;;;6311447;22;46360;-69
2023/10/21 11:43:36;;;;;;;;;3.00;1.00;;;;;;;;6340716;22;46691;-71
2023/10/21 11:46:03;;;;;;;;;4.00;1.00;;;;;;;;6340537;22;45231;-71
2023/10/21 11:48:29;;;;;;;;;0.00;0.00;;;;;;;;6339352;22;44647;-70
2023/10/21 11:50:55;;;;;;;;;1.00;1.00;;;;;;;;6339484;22;45349;-70
2023/10/21 11:53:20;;;;;;;;;4.00;1.00;;;;;;;;6340344;22;45469;-70
2023/10/21 12:13:09;;;;;;;;;3.33;1.33;;;;;;;;6340111;22;45326;-68
2023/10/21 12:35:41;;;;;;;;;4.33;1.00;;;;;;;;6339132;22;45380;-71
2023/10/21 12:40:37;;;;;;;;;3.33;0.33;;;;;;;;6337489;22;45140;-72
2023/10/21 12:44:11;;;;;;;;;2.00;0.67;;;;;;;;6339485;22;45318;-72
2023/10/21 12:46:00;;;;;;;;;3.33;0.00;;;;;;;;6312322;22;45156;-72
2023/10/21 12:48:25;;;;;;;;;1.00;1.00;;;;;;;;6313009;22;45247;-72
2023/10/21 12:50:51;;;;;;;;;2.00;2.00;;;;;;;;6339800;22;45259;-72
2023/10/21 12:53:17;;;;;;;;;2.00;1.00;;;;;;;;6341613;22;45255;-72
2023/10/21 12:55:43;;;;;;;;;3.00;1.00;;;;;;;;6341201;22;45282;-72
2023/10/21 12:58:09;;;;;;;;;2.67;2.67;;;;;;;;6341286;22;45144;-72
2023/10/21 13:00:34;;;;;;;;;5.33;1.00;;;;;;;;6312155;22;45282;-72
2023/10/21 13:02:59;;;;;;;;;0.33;0.33;;;;;;;;6342028;22;45413;-72
2023/10/21 13:05:24;;;;;;;;;2.33;0.00;;;;;;;;6311652;22;46860;-72
2023/10/21 13:07:50;;;;;;;;;1.33;0.00;;;;;;;;6342260;22;45220;-72
2023/10/21 13:10:15;;;;;;;;;1.33;1.00;;;;;;;;6341360;22;45148;-72
2023/10/21 13:12:40;;;;;;;;;0.00;0.00;;;;;;;;6341198;22;45479;-72
2023/10/21 13:15:11;;;;;;;;;0.00;0.00;;;;;;;;6341258;22;46260;-73
2023/10/21 13:17:36;;;;;;;;;2.00;1.00;;;;;;;;6341395;22;45267;-73
2023/10/21 13:20:04;;;;;;;;;0.67;0.00;;;;;;;;6340935;22;45250;-73
2023/10/21 13:22:29;;;;;;;;;0.33;0.00;;;;;;;;6341233;22;45510;-72
2023/10/21 13:24:55;;;;;;;;;2.00;1.00;;;;;;;;6341118;22;45550;-72
2023/10/21 13:27:20;;;;;;;;;0.00;0.00;;;;;;;;6341494;22;45062;-73
2023/10/21 13:29:45;;;;;;;;;4.33;0.67;;;;;;;;6341349;22;45339;-72
2023/10/21 13:32:10;;;;;;;;;0.67;0.67;;;;;;;;6341770;22;45523;-72
2023/10/21 13:34:36;;;;;;;;;0.33;0.33;;;;;;;;6340740;22;45392;-72
2023/10/21 13:37:01;;;;;;;;;2.00;1.00;;;;;;;;6313022;22;45356;-71
2023/10/21 13:39:28;;;;;;;;;0.33;0.00;;;;;;;;6340936;22;45153;-72
2023/10/21 13:41:53;;;;;;;;;2.00;0.33;;;;;;;;6341345;22;45470;-72
2023/10/21 13:44:19;;;;;;;;;0.00;0.00;;;;;;;;6341026;22;45953;-72
2023/10/21 13:46:44;;;;;;;;;0.00;0.00;;;;;;;;6341365;22;45137;-72
2023/10/21 13:49:15;;;;;;;;;1.00;0.67;;;;;;;;6340575;22;45338;-72
2023/10/21 13:51:41;;;;;;;;;2.00;0.67;;;;;;;;6340798;22;45239;-72
2023/10/21 13:54:09;;;;;;;;;0.00;0.00;;;;;;;;6340700;22;45200;-72
2023/10/21 13:56:34;;;;;;;;;1.00;0.00;;;;;;;;6339554;22;45328;-72
2023/10/21 13:58:59;;;;;;;;;0.00;0.00;;;;;;;;6311627;22;45284;-73
2023/10/21 14:01:25;;;;;;;;;0.33;0.33;;;;;;;;6312373;22;45890;-73
2023/10/21 14:03:50;;;;;;;;;7.00;5.00;;;;;;;;6312045;22;46902;-72
2023/10/21 14:06:19;;;;;;;;;45.33;37.67;;;;;;;;6340384;22;45279;-72
2023/10/21 14:08:44;;;;;;;;;14.67;10.67;;;;;;;;6312509;22;45201;-72
2023/10/21 14:11:10;;;;;;;;;3.00;3.00;;;;;;;;6341022;22;45124;-72
2023/10/21 14:13:35;;;;;;;;;3.00;1.00;;;;;;;;6339605;22;45280;-72
2023/10/21 14:16:11;;;;;;;;;1.00;1.00;;;;;;;;6341386;22;44624;-71
2023/10/21 14:18:36;;;;;;;;;3.00;2.00;;;;;;;;6339096;22;45317;-72
2023/10/21 14:21:02;;;;;;;;;5.00;2.00;;;;;;;;6340973;22;45074;-72
2023/10/21 14:23:28;;;;;;;;;1.67;0.00;;;;;;;;6340748;22;45247;-72
2023/10/21 14:25:54;;;;;;;;;2.00;0.00;;;;;;;;6340912;22;45168;-71
2023/10/21 14:28:20;;;;;;;;;1.00;1.00;;;;;;;;6341535;22;45219;-71
2023/10/21 14:30:46;;;;;;;;;1.67;1.00;;;;;;;;6340846;22;45308;-71
2023/10/21 14:33:12;;;;;;;;;1.00;1.00;;;;;;;;6340836;22;46258;-71
2023/10/21 14:35:39;;;;;;;;;1.00;1.00;;;;;;;;6311777;22;45304;-72
2023/10/21 14:38:04;;;;;;;;;0.33;0.33;;;;;;;;6339528;22;45196;-72
2023/10/21 14:40:30;;;;;;;;;2.00;1.00;;;;;;;;6340408;22;45124;-72
2023/10/21 14:42:56;;;;;;;;;0.00;0.00;;;;;;;;6312527;22;45391;-71
2023/10/21 14:45:21;;;;;;;;;1.00;0.67;;;;;;;;6340139;22;45162;-72
2023/10/21 14:47:46;;;;;;;;;2.33;1.00;;;;;;;;6341390;22;45237;-71
2023/10/21 14:50:12;;;;;;;;;3.00;1.00;;;;;;;;6310102;22;46864;-71
2023/10/21 14:52:37;;;;;;;;;3.00;1.00;;;;;;;;6341042;22;45250;-71
2023/10/21 14:55:05;;;;;;;;;3.67;1.67;;;;;;;;6340801;22;44662;-72
2023/10/21 14:57:31;;;;;;;;;2.00;1.00;;;;;;;;6340437;22;45244;-71
2023/10/21 14:59:57;;;;;;;;;1.00;0.67;;;;;;;;6339349;22;46670;-71
2023/10/21 15:02:22;;;;;;;;;0.67;0.00;;;;;;;;6338843;22;45314;-72
2023/10/21 15:04:49;;;;;;;;;2.67;1.00;;;;;;;;6340227;22;45241;-71
2023/10/21 15:07:16;;;;;;;;;3.67;0.67;;;;;;;;6341061;22;45216;-72
2023/10/21 15:09:41;;;;;;;;;1.67;1.00;;;;;;;;6340278;22;45375;-72
2023/10/21 15:12:06;;;;;;;;;2.00;1.00;;;;;;;;6340739;22;45395;-72
2023/10/21 15:14:32;;;;;;;;;2.00;1.00;;;;;;;;6340583;22;45152;-72
2023/10/21 15:16:57;;;;;;;;;1.00;1.00;;;;;;;;6341373;22;45255;-72
2023/10/21 15:19:22;;;;;;;;;2.67;1.00;;;;;;;;6340188;22;45506;-70
2023/10/21 15:21:47;;;;;;;;;1.00;1.00;;;;;;;;6339882;22;45153;-71
2023/10/21 15:24:12;;;;;;;;;0.00;0.00;;;;;;;;6340408;22;45155;-72
2023/10/21 15:26:38;;;;;;;;;1.00;1.00;;;;;;;;6341089;22;45160;-72
2023/10/21 15:29:03;;;;;;;;;1.67;0.67;;;;;;;;6340612;22;45198;-72
2023/10/21 15:31:29;;;;;;;;;1.67;1.00;;;;;;;;6312343;22;47434;-72
2023/10/21 15:33:57;;;;;;;;;1.00;1.00;;;;;;;;6340390;22;45276;-72
2023/10/21 15:36:22;;;;;;;;;23.00;19.33;;;;;;;;6340528;22;45334;-71
2023/10/21 15:38:52;;;;;;;;;0.67;0.00;;;;;;;;6340332;22;45318;-72
2023/10/21 15:41:17;;;;;;;;;3.00;1.00;;;;;;;;6339932;22;46898;-72
2023/10/21 15:43:42;;;;;;;;;1.00;1.00;;;;;;;;6340034;22;45247;-71
2023/10/21 15:46:10;;;;;;;;;1.00;1.00;;;;;;;;6339527;22;45266;-71
2023/10/21 15:48:35;;;;;;;;;3.67;0.67;;;;;;;;6339988;22;45273;-71
2023/10/21 15:51:08;;;;;;;;;1.67;0.00;;;;;;;;6339554;22;45488;-71
2023/10/21 15:53:33;;;;;;;;;0.00;0.00;;;;;;;;6339800;22;45155;-72
2023/10/21 15:55:58;;;;;;;;;3.00;1.67;;;;;;;;6340333;22;45224;-71
2023/10/21 15:58:23;;;;;;;;;2.67;1.00;;;;;;;;6340646;22;45255;-71
2023/10/21 16:00:48;;;;;;;;;6.00;1.00;;;;;;;;6340201;22;45566;-71
2023/10/21 16:03:14;;;;;;;;;1.00;1.00;;;;;;;;6340389;22;45387;-71
2023/10/21 16:05:39;;;;;;;;;5.00;1.00;;;;;;;;6339931;22;45243;-71
2023/10/21 16:08:04;;;;;;;;;1.67;1.00;;;;;;;;6340793;22;45251;-72
2023/10/21 16:10:29;;;;;;;;;1.00;0.00;;;;;;;;6340104;22;45263;-71
2023/10/21 16:12:54;;;;;;;;;2.33;0.33;;;;;;;;6338660;22;44723;-71
2023/10/21 16:15:20;;;;;;;;;2.33;2.00;;;;;;;;6340609;22;45328;-71
2023/10/21 16:17:46;;;;;;;;;0.00;0.00;;;;;;;;6340734;22;45254;-71
2023/10/21 16:20:11;;;;;;;;;2.33;1.00;;;;;;;;6339498;22;46381;-71
2023/10/21 16:22:38;;;;;;;;;1.00;1.00;;;;;;;;6340379;22;45287;-70
2023/10/21 16:25:04;;;;;;;;;3.00;2.00;;;;;;;;6340004;22;44677;-72
2023/10/21 16:27:29;;;;;;;;;2.00;2.00;;;;;;;;6310772;22;45765;-75
2023/10/21 16:29:54;;;;;;;;;0.00;0.00;;;;;;;;6339764;22;45981;-76
2023/10/21 16:32:19;;;;;;;;;3.67;1.33;;;;;;;;6311387;22;45161;-76
2023/10/21 16:34:44;;;;;;;;;2.67;1.67;;;;;;;;6339777;22;45526;-72
2023/10/21 16:37:09;;;;;;;;;2.33;1.67;;;;;;;;6311921;22;46729;-73
2023/10/21 16:39:35;;;;;;;;;5.00;2.00;;;;;;;;6339896;22;45106;-71
2023/10/21 16:42:00;;;;;;;;;5.00;4.00;;;;;;;;6311141;22;45238;-76
2023/10/21 16:44:25;;;;;;;;;7.33;5.67;;;;;;;;6339977;22;45182;-74
2023/10/21 16:46:50;;;;;;;;;1.00;1.00;;;;;;;;6340266;22;45083;-74
2023/10/21 16:49:16;;;;;;;;;1.67;1.67;;;;;;;;6338763;22;46033;-75
2023/10/21 16:51:41;;;;;;;;;2.00;2.00;;;;;;;;6340192;22;45190;-72
2023/10/21 16:54:06;;;;;;;;;2.00;1.00;;;;;;;;6340066;22;45129;-73
2023/10/21 16:56:31;;;;;;;;;5.00;2.00;;;;;;;;6339916;22;45168;-73
2023/10/21 16:58:56;;;;;;;;;2.67;1.33;;;;;;;;6311184;22;47152;-75
2023/10/21 17:01:22;;;;;;;;;2.00;2.00;;;;;;;;6340028;22;45223;-74
2023/10/21 17:03:48;;;;;;;;;1.33;1.00;;;;;;;;6338101;22;44619;-73
2023/10/21 17:06:13;;;;;;;;;3.00;1.00;;;;;;;;6340345;22;45094;-72
2023/10/21 17:08:39;;;;;;;;;4.00;1.00;;;;;;;;6339472;22;45211;-71
2023/10/21 17:11:04;;;;;;;;;3.00;1.00;;;;;;;;6311942;22;45338;-72
2023/10/21 17:13:29;;;;;;;;;1.00;0.00;;;;;;;;6312115;22;44650;-71
2023/10/21 17:15:55;;;;;;;;;1.00;1.00;;;;;;;;6340182;22;44717;-70
2023/10/21 17:18:21;;;;;;;;;3.00;1.00;;;;;;;;6339516;22;45175;-71
2023/10/21 17:20:46;;;;;;;;;4.00;1.00;;;;;;;;6339785;22;45223;-70
2023/10/21 17:23:12;;;;;;;;;2.00;2.00;;;;;;;;6339543;22;44634;-70
2023/10/21 17:25:37;;;;;;;;;2.67;1.67;;;;;;;;6341001;22;45271;-70
2023/10/21 17:28:02;;;;;;;;;2.00;1.00;;;;;;;;6341261;22;46193;-70
2023/10/21 17:30:28;;;;;;;;;4.67;4.67;;;;;;;;6340617;22;45215;-70
2023/10/21 17:32:53;;;;;;;;;6.33;6.00;;;;;;;;6341344;22;45226;-71
2023/10/21 17:35:18;;;;;;;;;6.67;5.00;;;;;;;;6341270;22;45263;-70
2023/10/21 17:37:45;;;;;;;;;9.00;8.00;;;;;;;;6341624;22;45294;-70
2023/10/21 17:40:11;;;;;;;;;13.33;11.00;;;;;;;;6313102;22;45252;-70
2023/10/21 17:42:36;;;;;;;;;6.00;6.00;;;;;;;;6340977;22;45157;-69
2023/10/21 17:45:03;;;;;;;;;14.67;9.33;;;;;;;;6312823;22;45227;-71
2023/10/21 17:47:28;;;;;;;;;16.33;10.00;;;;;;;;6312989;22;45356;-71
2023/10/21 17:49:53;;;;;;;;;13.00;11.67;;;;;;;;6340436;22;45143;-70
2023/10/21 17:52:19;;;;;;;;;6.67;4.67;;;;;;;;6340136;22;45208;-70
2023/10/21 17:54:44;;;;;;;;;10.67;8.67;;;;;;;;6312896;22;47026;-71
2023/10/21 17:57:09;;;;;;;;;15.67;9.33;;;;;;;;6341465;22;46140;-69
2023/10/21 17:59:34;;;;;;;;;8.33;5.00;;;;;;;;6341192;22;45303;-70
2023/10/21 18:01:59;;;;;;;;;2.00;2.00;;;;;;;;6341400;22;44562;-70
2023/10/21 18:04:25;;;;;;;;;17.67;12.67;;;;;;;;6340861;22;45234;-70
2023/10/21 18:06:50;;;;;;;;;8.33;6.67;;;;;;;;6341410;22;45270;-70
2023/10/21 18:09:15;;;;;;;;;5.00;5.00;;;;;;;;6341327;22;45199;-70
2023/10/21 18:11:40;;;;;;;;;7.00;5.00;;;;;;;;6341562;22;45335;-70
2023/10/21 18:14:07;;;;;;;;;4.67;2.33;;;;;;;;6312575;22;45417;-70
2023/10/21 18:16:33;;;;;;;;;6.67;3.33;;;;;;;;6341183;22;46397;-71
2023/10/21 18:18:59;;;;;;;;;6.67;5.00;;;;;;;;6340465;22;45285;-70
2023/10/21 18:21:24;;;;;;;;;6.33;6.33;;;;;;;;6313172;22;45279;-70
2023/10/21 18:23:49;;;;;;;;;10.00;7.00;;;;;;;;6341738;22;45153;-70
2023/10/21 18:26:14;;;;;;;;;11.00;7.67;;;;;;;;6340912;22;45069;-70
2023/10/21 18:28:39;;;;;;;;;4.67;3.33;;;;;;;;6341062;22;45222;-70
2023/10/21 18:31:05;;;;;;;;;10.33;7.00;;;;;;;;6341458;22;45341;-70
2023/10/21 18:33:31;;;;;;;;;9.00;9.00;;;;;;;;6340817;22;45731;-70
2023/10/21 18:35:56;;;;;;;;;5.67;2.00;;;;;;;;6340302;22;46414;-71
2023/10/21 18:38:23;;;;;;;;;11.33;8.67;;;;;;;;6312797;22;45275;-71
2023/10/21 18:40:50;;;;;;;;;9.67;8.33;;;;;;;;6340549;22;45152;-70
2023/10/21 18:43:15;;;;;;;;;5.00;3.33;;;;;;;;6339406;22;45011;-71
2023/10/21 18:45:41;;;;;;;;;7.00;4.00;;;;;;;;6340749;22;45351;-72
2023/10/21 18:48:07;;;;;;;;;10.00;10.00;;;;;;;;6312931;22;45243;-71
2023/10/21 18:50:32;;;;;;;;;5.00;5.00;;;;;;;;6338055;22;45412;-72
2023/10/21 18:52:58;;;;;;;;;6.33;4.67;;;;;;;;6340728;22;45527;-71
2023/10/21 18:55:23;;;;;;;;;4.33;2.00;;;;;;;;6340380;22;45246;-71
2023/10/21 18:57:48;;;;;;;;;3.33;3.33;;;;;;;;6341049;22;45346;-71
2023/10/21 19:00:13;;;;;;;;;3.67;3.33;;;;;;;;6340936;22;46041;-70
2023/10/21 19:02:39;;;;;;;;;8.67;6.00;;;;;;;;6312970;22;46165;-71
2023/10/21 19:05:04;;;;;;;;;10.00;6.33;;;;;;;;6340557;22;46162;-70
2023/10/21 19:07:29;;;;;;;;;5.33;4.00;;;;;;;;6341017;22;45108;-70
2023/10/21 19:09:56;;;;;;;;;2.67;1.33;;;;;;;;6340882;22;45262;-71
2023/10/21 19:12:21;;;;;;;;;12.33;9.67;;;;;;;;6341284;22;45086;-69
2023/10/21 19:14:47;;;;;;;;;5.00;4.00;;;;;;;;6340332;22;45257;-70
2023/10/21 19:17:13;;;;;;;;;3.67;3.67;;;;;;;;6340934;22;45153;-70
2023/10/21 19:19:38;;;;;;;;;4.67;4.67;;;;;;;;6340362;22;45143;-70
2023/10/21 19:22:03;;;;;;;;;4.00;4.00;;;;;;;;6341107;22;45202;-70
2023/10/21 19:24:28;;;;;;;;;7.33;5.00;;;;;;;;6340766;22;45250;-71
2023/10/21 19:26:54;;;;;;;;;3.00;3.00;;;;;;;;6341105;22;45127;-71
2023/10/21 19:29:19;;;;;;;;;3.00;3.00;;;;;;;;6340944;22;45320;-71
2023/10/21 19:31:46;;;;;;;;;4.00;4.00;;;;;;;;6341010;22;45739;-72
2023/10/21 19:34:11;;;;;;;;;4.67;4.00;;;;;;;;6311717;22;47255;-70
2023/10/21 19:36:37;;;;;;;;;4.00;4.00;;;;;;;;6340905;22;45289;-71
2023/10/21 19:39:04;;;;;;;;;5.67;2.33;;;;;;;;6340643;22;45297;-71
2023/10/21 19:41:29;;;;;;;;;3.00;3.00;;;;;;;;6341036;22;45384;-71
2023/10/21 19:43:54;;;;;;;;;3.33;2.00;;;;;;;;6340649;22;45184;-71
2023/10/21 19:46:20;;;;;;;;;4.67;3.33;;;;;;;;6340344;22;45094;-71
2023/10/21 19:48:46;;;;;;;;;3.00;3.00;;;;;;;;6340647;22;45188;-70
2023/10/21 19:51:13;;;;;;;;;3.00;3.00;;;;;;;;6339925;22;45345;-70
2023/10/21 19:53:38;;;;;;;;;3.33;3.00;;;;;;;;6340442;22;44966;-71
2023/10/21 19:56:04;;;;;;;;;5.33;4.33;;;;;;;;6340880;22;45144;-70
2023/10/21 19:58:29;;;;;;;;;2.33;2.33;;;;;;;;6313050;22;45272;-71
2023/10/21 20:01:05;;;;;;;;;2.00;2.00;;;;;;;;6339825;22;45972;-70
2023/10/21 20:03:31;;;;;;;;;8.33;5.00;;;;;;;;6340704;22;45292;-70
2023/10/21 20:05:56;;;;;;;;;5.00;3.67;;;;;;;;6311728;22;45241;-70
2023/10/21 20:08:21;;;;;;;;;4.33;2.67;;;;;;;;6341093;22;45253;-70
2023/10/21 20:10:47;;;;;;;;;16.00;10.00;;;;;;;;6311566;22;46804;-70
2023/10/21 20:13:12;;;;;;;;;4.00;4.00;;;;;;;;6340610;22;45235;-71
2023/10/21 20:15:41;;;;;;;;;6.00;3.00;;;;;;;;6340496;22;45372;-70
2023/10/21 20:18:06;;;;;;;;;3.00;1.00;;;;;;;;6339631;22;45367;-69
2023/10/21 20:20:34;;;;;;;;;1.00;1.00;;;;;;;;6339821;22;45385;-70
2023/10/21 20:23:00;;;;;;;;;6.67;3.00;;;;;;;;6340378;22;45419;-70
2023/10/21 20:25:25;;;;;;;;;3.00;3.00;;;;;;;;6340614;22;45162;-71
2023/10/21 20:27:50;;;;;;;;;4.00;2.67;;;;;;;;6340856;22;45270;-69
2023/10/21 20:30:15;;;;;;;;;4.33;4.33;;;;;;;;6311714;22;45632;-70
2023/10/21 20:32:41;;;;;;;;;5.00;4.00;;;;;;;;6340822;22;45353;-71
2023/10/21 20:35:06;;;;;;;;;3.00;3.00;;;;;;;;6338026;22;45294;-70
2023/10/21 20:37:31;;;;;;;;;9.00;8.67;;;;;;;;6340733;22;45209;-71
2023/10/21 20:39:57;;;;;;;;;6.00;4.67;;;;;;;;6339309;22;45280;-70
2023/10/21 20:42:22;;;;;;;;;2.67;2.67;;;;;;;;6340398;22;46106;-71
2023/10/21 20:44:47;;;;;;;;;2.00;2.00;;;;;;;;6340103;22;45267;-70
2023/10/21 20:47:13;;;;;;;;;2.00;1.00;;;;;;;;6311876;22;44682;-70
2023/10/21 20:49:38;;;;;;;;;1.33;1.33;;;;;;;;6339355;22;45321;-71
2023/10/21 20:52:03;;;;;;;;;3.00;2.00;;;;;;;;6311403;22;45327;-70
2023/10/21 20:54:29;;;;;;;;;6.67;4.33;;;;;;;;6340007;22;45220;-70
